Time;durP1;ratioP1;P1;durP2;ratioP2;P2;SDS_P1;SDS_P2;PMS_P1;PMS_P2;Temp;Humidity;BMP_temperature;BMP_pressure;BME280_temperature;BME280_humidity;BME280_pressure;Samples;Min_cycle;Max_cycle;Signal;HPM_P1;HPM_P2
2023/03/02 00:00:00;;;;;;;8.70;6.63;;;18.00;42.20;;;;;;5055977;28;20455;-84
2023/03/02 00:02:28;;;;;;;10.60;6.50;;;18.00;42.30;;;;;;5049758;28;20956;-83
2023/03/02 00:04:57;;;;;;;9.33;6.40;;;18.00;42.40;;;;;;5047864;28;20479;-82
2023/03/02 00:07:30;;;;;;;10.60;6.73;;;17.90;42.30;;;;;;5055351;28;20455;-84
2023/03/02 00:10:01;;;;;;;11.80;6.00;;;17.90;42.30;;;;;;5047944;28;20462;-84
2023/03/02 00:12:31;;;;;;;10.53;7.10;;;17.90;42.30;;;;;;5051154;28;20557;-82
2023/03/02 00:14:59;;;;;;;10.33;6.17;;;17.90;42.40;;;;;;5051177;28;20473;-83
2023/03/02 00:17:28;;;;;;;11.00;7.00;;;17.90;42.40;;;;;;5056001;28;20485;-83
2023/03/02 00:20:06;;;;;;;11.77;6.63;;;17.80;42.50;;;;;;5049987;28;20894;-83
2023/03/02 00:22:34;;;;;;;8.43;6.80;;;17.80;42.50;;;;;;5049629;28;20523;-84
2023/03/02 00:25:02;;;;;;;8.47;5.77;;;17.80;42.50;;;;;;5052887;28;20482;-84
2023/03/02 00:27:32;;;;;;;10.33;6.37;;;17.80;42.60;;;;;;5054387;28;20498;-83
2023/03/02 00:30:00;;;;;;;11.73;6.93;;;17.80;42.60;;;;;;5051682;28;20461;-84
2023/03/02 00:32:28;;;;;;;12.20;7.37;;;17.80;42.60;;;;;;5054933;28;20513;-84
2023/03/02 00:34:57;;;;;;;11.40;7.07;;;17.80;42.70;;;;;;5039432;28;20518;-83
2023/03/02 00:37:25;;;;;;;12.27;6.93;;;17.70;42.60;;;;;;5056054;28;20568;-84
2023/03/02 00:39:53;;;;;;;9.10;6.30;;;17.70;42.70;;;;;;5048565;28;20458;-84
2023/03/02 00:42:21;;;;;;;10.50;6.30;;;17.70;42.60;;;;;;5048381;28;20498;-84
2023/03/02 00:44:51;;;;;;;9.67;6.90;;;17.70;42.80;;;;;;5056272;28;20479;-84
2023/03/02 00:47:19;;;;;;;8.83;6.67;;;17.70;42.70;;;;;;5054725;28;20515;-84
2023/03/02 00:49:48;;;;;;;11.50;7.20;;;17.70;42.80;;;;;;5053534;28;20450;-85
2023/03/02 00:52:16;;;;;;;10.37;6.83;;;17.60;42.80;;;;;;5051984;28;20469;-83
2023/03/02 00:54:44;;;;;;;12.13;6.90;;;17.60;42.80;;;;;;5045436;28;20464;-84
2023/03/02 00:57:12;;;;;;;10.97;6.97;;;17.60;42.90;;;;;;5057052;28;20466;-84
2023/03/02 00:59:40;;;;;;;9.37;6.47;;;17.60;42.90;;;;;;5057385;28;20453;-85
2023/03/02 01:02:10;;;;;;;9.33;6.60;;;17.60;42.90;;;;;;5056438;28;20439;-85
2023/03/02 01:04:38;;;;;;;10.37;6.83;;;17.50;42.80;;;;;;5050663;28;20537;-84
2023/03/02 01:07:07;;;;;;;12.00;7.20;;;17.50;43.00;;;;;;5052882;28;20519;-85
2023/03/02 01:09:35;;;;;;;9.00;6.00;;;17.50;43.00;;;;;;5055442;28;20459;-83
2023/03/02 01:12:04;;;;;;;11.40;6.60;;;17.50;43.00;;;;;;5045940;28;20471;-84
2023/03/02 01:14:33;;;;;;;8.43;6.47;;;17.50;42.90;;;;;;5050585;28;20462;-84
2023/03/02 01:17:01;;;;;;;10.23;6.90;;;17.50;43.00;;;;;;5042343;28;20464;-83
2023/03/02 01:19:30;;;;;;;9.70;7.07;;;17.50;43.00;;;;;;5051389;28;20460;-83
2023/03/02 01:21:58;;;;;;;10.47;7.07;;;17.50;43.00;;;;;;5048148;28;20456;-84
2023/03/02 01:24:26;;;;;;;7.27;6.47;;;17.40;43.00;;;;;;5045471;28;20510;-84
2023/03/02 01:26:55;;;;;;;9.53;7.17;;;17.40;43.10;;;;;;5060533;28;20470;-84
2023/03/02 01:29:22;;;;;;;9.13;6.97;;;17.40;43.10;;;;;;5047341;28;20451;-83
2023/03/02 01:31:50;;;;;;;9.10;6.77;;;17.40;43.30;;;;;;5049305;28;20449;-84
2023/03/02 01:34:19;;;;;;;9.27;6.77;;;17.40;43.20;;;;;;5046684;28;20471;-83
2023/03/02 01:36:48;;;;;;;9.87;7.07;;;17.30;43.10;;;;;;5049042;28;20461;-84
2023/03/02 01:39:16;;;;;;;15.27;6.83;;;17.30;43.20;;;;;;5053555;28;20452;-83
2023/03/02 01:41:45;;;;;;;10.27;6.53;;;17.30;43.20;;;;;;5049672;28;20473;-84
2023/03/02 01:44:41;;;;;;;7.80;6.43;;;17.30;43.20;;;;;;5046123;28;20514;-85
2023/03/02 01:47:19;;;;;;;8.97;6.50;;;17.30;43.30;;;;;;5055077;28;20457;-83
2023/03/02 01:49:49;;;;;;;10.30;7.50;;;17.30;43.30;;;;;;5046966;28;20456;-83
2023/03/02 01:52:19;;;;;;;10.07;6.80;;;17.30;43.30;;;;;;5048027;28;20455;-82
2023/03/02 01:54:48;;;;;;;9.60;7.03;;;17.30;43.20;;;;;;5050332;28;20485;-84
2023/03/02 01:57:19;;;;;;;7.80;6.30;;;17.20;43.20;;;;;;5048679;28;20494;-84
2023/03/02 01:59:47;;;;;;;8.40;5.67;;;17.20;43.30;;;;;;5047806;28;20566;-83
2023/03/02 02:02:16;;;;;;;10.73;6.20;;;17.20;43.30;;;;;;5043545;28;20467;-85
2023/03/02 02:04:45;;;;;;;11.47;6.97;;;17.20;43.30;;;;;;5050777;28;20471;-85
2023/03/02 02:07:13;;;;;;;9.67;6.70;;;17.20;43.30;;;;;;5053911;28;20475;-85
2023/03/02 02:09:44;;;;;;;8.53;6.97;;;17.10;43.20;;;;;;5043927;28;20554;-84
2023/03/02 02:12:13;;;;;;;10.40;7.70;;;17.10;43.20;;;;;;5044975;28;20471;-84
2023/03/02 02:14:41;;;;;;;7.43;6.60;;;17.10;43.30;;;;;;5043961;28;20467;-83
2023/03/02 02:17:10;;;;;;;8.90;7.20;;;17.10;43.30;;;;;;5044737;28;20462;-85
2023/03/02 02:19:50;;;;;;;8.23;6.50;;;17.00;43.30;;;;;;5047639;28;20459;-85
2023/03/02 02:22:25;;;;;;;8.70;6.47;;;17.00;43.30;;;;;;5050562;28;20510;-84
2023/03/02 02:24:57;;;;;;;9.17;7.47;;;17.10;43.40;;;;;;5049013;28;20514;-85
2023/03/02 02:27:32;;;;;;;9.33;6.50;;;17.00;43.30;;;;;;5050796;28;20463;-84
2023/03/02 02:30:01;;;;;;;9.63;6.23;;;17.00;43.40;;;;;;5047869;28;20546;-84
2023/03/02 02:32:31;;;;;;;8.03;6.30;;;17.00;43.30;;;;;;5056333;28;20449;-84
2023/03/02 02:35:01;;;;;;;8.53;6.40;;;16.90;43.30;;;;;;5051046;28;20470;-83
2023/03/02 02:37:32;;;;;;;9.20;7.07;;;17.00;43.40;;;;;;5050038;28;20442;-83
2023/03/02 02:40:00;;;;;;;12.70;7.70;;;16.90;43.30;;;;;;5052045;28;20447;-84
2023/03/02 02:42:30;;;;;;;9.00;6.63;;;16.90;43.40;;;;;;5053754;28;20473;-83
2023/03/02 02:45:04;;;;;;;9.40;7.23;;;16.90;43.40;;;;;;5047177;28;20478;-82
2023/03/02 02:47:32;;;;;;;8.20;5.97;;;16.90;43.40;;;;;;5053412;28;20442;-82
2023/03/02 02:50:01;;;;;;;8.20;6.50;;;16.90;43.50;;;;;;5057699;28;20451;-83
2023/03/02 02:52:28;;;;;;;9.70;6.70;;;16.90;43.50;;;;;;5045795;28;20958;-83
2023/03/02 02:54:57;;;;;;;9.00;6.60;;;16.90;43.70;;;;;;5046023;28;20561;-82
2023/03/02 02:57:26;;;;;;;8.50;6.70;;;16.80;43.60;;;;;;5055513;28;20478;-84
2023/03/02 02:59:57;;;;;;;9.73;7.23;;;16.80;43.50;;;;;;5051947;28;20482;-83
2023/03/02 03:02:27;;;;;;;9.30;6.40;;;16.80;43.50;;;;;;5056720;28;20485;-85
2023/03/02 03:05:01;;;;;;;8.10;6.40;;;16.80;43.60;;;;;;5049416;28;20480;-84
2023/03/02 03:07:32;;;;;;;6.47;5.67;;;16.80;43.70;;;;;;5051990;28;20451;-84
2023/03/02 03:10:01;;;;;;;9.87;6.70;;;16.80;43.80;;;;;;5046291;28;20458;-85
2023/03/02 03:12:29;;;;;;;8.80;6.37;;;16.70;43.80;;;;;;5054874;28;20502;-85
2023/03/02 03:14:59;;;;;;;8.87;6.67;;;16.70;43.90;;;;;;5047782;28;20477;-84
2023/03/02 03:17:27;;;;;;;9.63;6.43;;;16.70;43.90;;;;;;5055472;28;20551;-85
2023/03/02 03:20:05;;;;;;;7.77;6.07;;;16.70;43.90;;;;;;5059129;28;20450;-84
2023/03/02 03:22:34;;;;;;;8.00;6.70;;;16.60;43.90;;;;;;5055217;28;20483;-85
2023/03/02 03:25:01;;;;;;;7.63;5.70;;;16.70;43.90;;;;;;5046586;28;20478;-85
2023/03/02 03:27:29;;;;;;;6.70;5.60;;;16.60;44.00;;;;;;5049999;28;20476;-83
2023/03/02 03:30:00;;;;;;;6.20;5.60;;;16.60;44.00;;;;;;5046045;28;20451;-84
2023/03/02 03:32:28;;;;;;;7.53;5.70;;;16.60;44.00;;;;;;5051165;28;20503;-85
2023/03/02 03:34:56;;;;;;;6.20;5.60;;;16.60;44.00;;;;;;5045951;28;20466;-84
2023/03/02 03:37:24;;;;;;;6.50;5.70;;;16.60;44.10;;;;;;5050148;28;20474;-84
2023/03/02 03:39:51;;;;;;;6.73;5.70;;;16.60;44.00;;;;;;5051056;28;20453;-84
2023/03/02 03:42:20;;;;;;;6.60;5.90;;;16.50;44.10;;;;;;5044850;28;20497;-84
2023/03/02 03:44:47;;;;;;;7.10;5.90;;;16.50;44.10;;;;;;5045581;28;20482;-83
2023/03/02 03:47:17;;;;;;;7.60;6.07;;;16.50;44.00;;;;;;5052282;28;20483;-84
2023/03/02 03:49:45;;;;;;;7.30;6.20;;;16.50;44.10;;;;;;5054613;28;20462;-83
2023/03/02 03:52:12;;;;;;;8.90;6.00;;;16.50;44.20;;;;;;5052270;28;20451;-84
2023/03/02 03:54:41;;;;;;;7.37;6.20;;;16.40;44.20;;;;;;5049266;28;20462;-84
2023/03/02 03:57:10;;;;;;;7.40;6.10;;;16.40;44.20;;;;;;5054510;28;20481;-83
2023/03/02 03:59:38;;;;;;;8.00;5.80;;;16.40;44.20;;;;;;5054896;28;20447;-83
2023/03/02 04:02:06;;;;;;;8.33;6.10;;;16.40;44.40;;;;;;5046512;28;20451;-82
2023/03/02 04:04:36;;;;;;;6.53;5.60;;;16.40;44.30;;;;;;5051953;28;20462;-83
2023/03/02 04:07:03;;;;;;;7.27;6.03;;;16.40;44.30;;;;;;5051372;28;20472;-83
2023/03/02 04:09:36;;;;;;;6.90;6.00;;;16.30;44.30;;;;;;5055743;28;20451;-83
2023/03/02 04:12:05;;;;;;;6.73;6.03;;;16.30;44.20;;;;;;5049995;28;20483;-83
2023/03/02 04:14:34;;;;;;;6.60;5.90;;;16.30;44.30;;;;;;5045500;28;20478;-83
2023/03/02 04:17:04;;;;;;;7.87;6.17;;;16.30;44.20;;;;;;5053395;28;20453;-84
2023/03/02 04:19:32;;;;;;;7.57;6.00;;;16.30;44.20;;;;;;5049877;28;20530;-83
2023/03/02 04:22:02;;;;;;;6.80;5.40;;;16.20;44.20;;;;;;5052206;28;20461;-85
2023/03/02 04:24:31;;;;;;;7.77;6.03;;;16.30;44.30;;;;;;5049683;28;20505;-84
2023/03/02 04:26:59;;;;;;;7.90;6.17;;;16.20;44.30;;;;;;5056509;28;20480;-84
2023/03/02 04:29:27;;;;;;;6.00;5.40;;;16.20;44.40;;;;;;5052412;28;20447;-84
2023/03/02 04:31:55;;;;;;;6.90;5.50;;;16.20;44.50;;;;;;5050843;28;20591;-84
2023/03/02 04:34:24;;;;;;;7.40;5.73;;;16.20;44.50;;;;;;5046558;28;20479;-85
2023/03/02 04:36:52;;;;;;;8.00;5.53;;;16.10;44.50;;;;;;5046130;28;20451;-84
2023/03/02 04:39:22;;;;;;;5.57;4.97;;;16.10;44.40;;;;;;5050097;28;20461;-85
2023/03/02 04:41:50;;;;;;;7.17;5.73;;;16.20;44.70;;;;;;5046544;28;20467;-84
2023/03/02 04:44:18;;;;;;;6.00;5.40;;;16.10;44.40;;;;;;5044246;28;20467;-85
2023/03/02 04:46:46;;;;;;;5.77;5.13;;;16.10;44.40;;;;;;5050704;28;20488;-85
2023/03/02 04:49:18;;;;;;;8.57;6.20;;;16.10;44.40;;;;;;5052325;28;20462;-84
2023/03/02 04:51:48;;;;;;;5.63;5.13;;;16.10;44.40;;;;;;5045804;28;20462;-83
2023/03/02 04:54:17;;;;;;;7.67;5.73;;;16.00;44.40;;;;;;5043725;28;20476;-85
2023/03/02 04:56:47;;;;;;;6.80;6.10;;;16.00;44.40;;;;;;5048013;28;20478;-84
2023/03/02 04:59:15;;;;;;;6.57;5.67;;;16.00;44.40;;;;;;5042884;28;20549;-84
2023/03/02 05:01:43;;;;;;;8.03;6.10;;;16.00;44.20;;;;;;5048584;28;20455;-84
2023/03/02 05:04:11;;;;;;;7.23;5.80;;;16.00;44.40;;;;;;5043126;28;20467;-84
2023/03/02 05:06:39;;;;;;;6.83;5.73;;;15.90;44.90;;;;;;5045441;28;20472;-84
2023/03/02 05:09:07;;;;;;;7.10;6.00;;;15.90;44.50;;;;;;5050679;28;20459;-83
2023/03/02 05:11:36;;;;;;;6.60;5.80;;;15.90;44.40;;;;;;5051959;28;20481;-84
2023/03/02 05:14:06;;;;;;;6.27;5.63;;;15.90;44.60;;;;;;5046441;28;20474;-84
2023/03/02 05:16:36;;;;;;;6.20;5.60;;;15.90;44.50;;;;;;5049334;28;20461;-85
2023/03/02 05:19:05;;;;;;;5.90;5.30;;;15.90;44.60;;;;;;5041234;28;20455;-84
2023/03/02 05:21:33;;;;;;;6.20;5.27;;;15.90;44.60;;;;;;5042998;28;20473;-84
2023/03/02 05:24:02;;;;;;;5.90;5.30;;;15.80;44.50;;;;;;5053102;28;20541;-84
2023/03/02 05:26:30;;;;;;;5.90;5.03;;;15.80;44.70;;;;;;5047583;28;20466;-84
2023/03/02 05:28:59;;;;;;;6.60;5.33;;;15.80;44.70;;;;;;5051473;28;20482;-84
2023/03/02 05:31:31;;;;;;;6.43;5.40;;;15.80;44.70;;;;;;5053160;28;20451;-84
2023/03/02 05:33:59;;;;;;;5.80;5.20;;;15.80;44.90;;;;;;5050311;28;20471;-84
2023/03/02 05:36:27;;;;;;;6.30;5.40;;;15.80;44.70;;;;;;5051359;28;20454;-84
2023/03/02 05:38:55;;;;;;;5.03;4.57;;;15.70;44.70;;;;;;5054464;28;20458;-84
2023/03/02 05:41:23;;;;;;;5.63;5.03;;;15.70;44.70;;;;;;5047895;28;20465;-83
2023/03/02 05:43:51;;;;;;;7.40;5.27;;;15.70;44.90;;;;;;5052226;28;20554;-85
2023/03/02 05:46:19;;;;;;;7.40;4.90;;;15.70;44.90;;;;;;5044104;28;20470;-83
2023/03/02 05:48:50;;;;;;;6.17;5.33;;;15.70;44.90;;;;;;5054095;28;20482;-82
2023/03/02 05:51:18;;;;;;;7.30;5.27;;;15.60;44.90;;;;;;5041648;28;20482;-84
2023/03/02 05:53:46;;;;;;;5.50;4.73;;;15.60;44.90;;;;;;5047314;28;20481;-83
2023/03/02 05:56:14;;;;;;;6.30;5.07;;;15.60;45.00;;;;;;5047824;28;20474;-83
2023/03/02 05:58:42;;;;;;;6.20;5.23;;;15.60;45.00;;;;;;5046511;28;20459;-83
2023/03/02 06:01:11;;;;;;;6.00;5.40;;;15.60;44.90;;;;;;5052187;28;20449;-83
2023/03/02 06:03:42;;;;;;;6.80;5.50;;;15.60;44.90;;;;;;5052925;28;20470;-82
2023/03/02 06:06:12;;;;;;;5.80;5.00;;;15.60;44.90;;;;;;5049234;28;20458;-84
2023/03/02 06:08:41;;;;;;;5.73;5.23;;;15.60;44.90;;;;;;5045382;28;20478;-84
2023/03/02 06:11:09;;;;;;;5.20;4.70;;;15.60;45.00;;;;;;5047275;28;20479;-83
2023/03/02 06:13:37;;;;;;;6.50;5.40;;;15.60;45.00;;;;;;5045556;28;20462;-83
2023/03/02 06:16:05;;;;;;;5.77;5.00;;;15.50;44.90;;;;;;5048277;28;20445;-83
2023/03/02 06:18:33;;;;;;;7.73;5.80;;;15.50;44.80;;;;;;5051459;28;20465;-83
2023/03/02 06:21:01;;;;;;;5.77;5.17;;;15.50;44.90;;;;;;5049177;28;20455;-83
2023/03/02 06:23:30;;;;;;;6.20;5.20;;;15.40;45.00;;;;;;5053216;28;20452;-83
2023/03/02 06:25:58;;;;;;;6.03;5.23;;;15.50;45.10;;;;;;5047739;28;20466;-83
2023/03/02 06:28:27;;;;;;;6.63;5.43;;;15.40;45.00;;;;;;5044305;28;20466;-83
2023/03/02 06:30:54;;;;;;;5.67;5.07;;;15.40;45.60;;;;;;5051548;28;20458;-83
2023/03/02 06:33:22;;;;;;;6.00;5.13;;;15.50;45.00;;;;;;5047014;28;20483;-83
2023/03/02 06:35:50;;;;;;;6.57;5.23;;;15.40;45.00;;;;;;5046847;28;20460;-83
2023/03/02 06:38:18;;;;;;;5.83;5.23;;;15.40;45.00;;;;;;5049474;28;20446;-83
2023/03/02 06:40:47;;;;;;;5.63;5.03;;;15.40;45.10;;;;;;5049981;28;20486;-84
2023/03/02 06:43:16;;;;;;;6.53;5.50;;;15.40;45.00;;;;;;5049586;28;20451;-83
2023/03/02 06:45:45;;;;;;;6.97;5.93;;;15.40;45.00;;;;;;5051692;28;20443;-83
2023/03/02 06:48:13;;;;;;;6.83;5.40;;;15.40;45.00;;;;;;5048105;28;20553;-84
2023/03/02 06:50:41;;;;;;;6.90;6.10;;;15.40;45.00;;;;;;5053104;28;20836;-84
2023/03/02 06:53:10;;;;;;;7.17;5.30;;;15.40;45.00;;;;;;5049606;28;20446;-83
2023/03/02 06:55:38;;;;;;;6.80;5.80;;;15.40;45.00;;;;;;5043316;28;20470;-83
2023/03/02 06:58:11;;;;;;;6.83;5.77;;;15.40;45.00;;;;;;5055459;28;20442;-84
2023/03/02 07:00:39;;;;;;;6.50;5.83;;;15.30;45.00;;;;;;5049017;28;20444;-84
2023/03/02 07:03:07;;;;;;;5.63;5.07;;;15.40;45.00;;;;;;5045859;28;20512;-84
2023/03/02 07:05:35;;;;;;;6.30;5.47;;;15.40;45.10;;;;;;5046721;28;20479;-85
2023/03/02 07:08:03;;;;;;;5.63;5.00;;;15.40;45.10;;;;;;5051848;28;20489;-83
2023/03/02 07:10:32;;;;;;;5.30;4.80;;;15.30;45.00;;;;;;5053805;28;20454;-84
2023/03/02 07:13:00;;;;;;;5.93;5.33;;;15.30;45.00;;;;;;5048905;28;20460;-83
2023/03/02 07:15:29;;;;;;;6.27;5.30;;;15.30;45.00;;;;;;5052772;28;20479;-85
2023/03/02 07:17:58;;;;;;;5.57;4.97;;;15.30;45.00;;;;;;5052398;28;20444;-83
2023/03/02 07:20:26;;;;;;;6.57;5.20;;;15.40;45.00;;;;;;5050120;28;20443;-84
2023/03/02 07:22:54;;;;;;;6.30;5.57;;;15.30;44.90;;;;;;5051985;28;20452;-84
2023/03/02 07:25:22;;;;;;;6.40;5.33;;;15.30;45.00;;;;;;5046554;28;20467;-83
2023/03/02 07:27:49;;;;;;;6.60;5.50;;;15.30;45.00;;;;;;5051511;28;20466;-84
2023/03/02 07:30:19;;;;;;;5.90;4.80;;;15.30;45.10;;;;;;5049259;28;20497;-83
2023/03/02 07:32:49;;;;;;;5.10;4.60;;;15.30;45.00;;;;;;5047231;28;20454;-85
2023/03/02 07:35:17;;;;;;;5.80;4.97;;;15.30;45.00;;;;;;5047091;28;20466;-84
2023/03/02 07:37:45;;;;;;;5.13;4.53;;;15.30;45.00;;;;;;5045100;28;20470;-84
2023/03/02 07:40:13;;;;;;;5.47;4.87;;;15.30;45.00;;;;;;5047767;28;20471;-82
2023/03/02 07:42:41;;;;;;;6.13;5.30;;;15.30;45.00;;;;;;5046297;28;20489;-80
2023/03/02 07:45:10;;;;;;;7.30;5.20;;;15.30;45.00;;;;;;5044339;28;20473;-83
2023/03/02 07:47:39;;;;;;;6.50;5.10;;;15.30;45.00;;;;;;5051912;28;20503;-82
2023/03/02 07:50:10;;;;;;;7.00;5.70;;;15.30;45.00;;;;;;5042155;28;20439;-83
2023/03/02 07:52:38;;;;;;;4.90;4.40;;;15.30;45.00;;;;;;5045833;28;20466;-83
2023/03/02 07:55:06;;;;;;;5.60;4.90;;;15.40;45.00;;;;;;5053233;28;20494;-82
2023/03/02 07:57:35;;;;;;;8.03;4.80;;;15.40;45.00;;;;;;5049716;28;20469;-83
2023/03/02 08:00:03;;;;;;;6.10;5.17;;;15.40;45.00;;;;;;5050807;28;20451;-83
2023/03/02 08:02:32;;;;;;;6.97;5.27;;;15.40;45.00;;;;;;5048331;28;20447;-83
2023/03/02 08:05:00;;;;;;;5.20;4.70;;;15.40;45.10;;;;;;5050857;28;20474;-83
2023/03/02 08:07:29;;;;;;;5.70;4.77;;;15.40;45.10;;;;;;5051874;28;20473;-82
2023/03/02 08:09:59;;;;;;;8.97;5.40;;;15.40;45.10;;;;;;5045852;28;20535;-82
2023/03/02 08:12:27;;;;;;;7.20;5.30;;;15.40;45.10;;;;;;5045610;28;20463;-82
2023/03/02 08:14:55;;;;;;;5.90;4.80;;;15.50;45.20;;;;;;5054587;28;20466;-82
2023/03/02 08:17:23;;;;;;;7.17;4.90;;;15.50;45.20;;;;;;5049288;28;20451;-82
2023/03/02 08:19:52;;;;;;;7.37;4.73;;;15.50;45.30;;;;;;5043860;28;20448;-82
2023/03/02 08:22:20;;;;;;;5.13;4.47;;;15.50;45.20;;;;;;5047184;28;20448;-82
2023/03/02 08:24:49;;;;;;;7.10;4.63;;;15.50;45.20;;;;;;5049034;28;20539;-82
2023/03/02 08:27:17;;;;;;;6.37;4.83;;;15.60;45.30;;;;;;5040733;28;20518;-82
2023/03/02 08:29:44;;;;;;;6.03;4.77;;;15.60;45.20;;;;;;5049336;28;20450;-82
2023/03/02 08:32:13;;;;;;;7.80;4.43;;;15.60;45.30;;;;;;5046498;28;20435;-82
2023/03/02 08:34:41;;;;;;;7.23;4.93;;;15.60;45.30;;;;;;5044352;28;20506;-81
2023/03/02 08:37:10;;;;;;;5.97;4.60;;;15.60;45.20;;;;;;5045579;28;20424;-83
2023/03/02 08:39:38;;;;;;;10.33;4.70;;;15.70;45.30;;;;;;5056493;28;20471;-82
2023/03/02 08:42:08;;;;;;;6.47;4.50;;;15.70;45.30;;;;;;5054949;28;20471;-83
2023/03/02 08:44:36;;;;;;;6.20;4.77;;;15.70;45.20;;;;;;5039634;28;20467;-82
2023/03/02 08:47:05;;;;;;;5.73;4.43;;;15.70;45.30;;;;;;5048545;28;20452;-83
2023/03/02 08:49:33;;;;;;;9.17;4.37;;;15.70;45.30;;;;;;5051452;28;20471;-82
2023/03/02 08:52:01;;;;;;;6.53;4.80;;;15.80;45.30;;;;;;5050247;28;20446;-81
2023/03/02 08:54:29;;;;;;;5.13;4.17;;;15.80;45.30;;;;;;5045959;28;20466;-82
2023/03/02 08:56:57;;;;;;;7.43;4.93;;;15.80;45.30;;;;;;5051365;28;20459;-82
2023/03/02 08:59:26;;;;;;;6.00;4.53;;;15.80;45.30;;;;;;5044319;28;20552;-82
2023/03/02 09:01:53;;;;;;;5.07;4.17;;;15.80;45.30;;;;;;5052269;28;20453;-82
2023/03/02 09:04:22;;;;;;;5.57;4.53;;;15.90;45.30;;;;;;5053070;28;20455;-82
2023/03/02 09:06:50;;;;;;;6.67;4.37;;;15.80;45.30;;;;;;5054075;28;20481;-82
2023/03/02 09:09:17;;;;;;;7.47;4.50;;;15.90;45.30;;;;;;5054211;28;20554;-82
2023/03/02 09:11:45;;;;;;;5.00;4.27;;;15.90;45.30;;;;;;5052824;28;20476;-82
2023/03/02 09:14:13;;;;;;;7.63;4.40;;;15.90;45.20;;;;;;5036724;28;20502;-82
2023/03/02 09:16:44;;;;;;;7.67;4.77;;;15.90;45.20;;;;;;5039274;28;20448;-81
2023/03/02 09:19:12;;;;;;;6.30;4.90;;;15.90;45.10;;;;;;5041525;28;20530;-81
2023/03/02 09:21:40;;;;;;;5.87;4.73;;;16.00;45.20;;;;;;5046003;28;20465;-81
2023/03/02 09:24:09;;;;;;;5.07;4.13;;;16.00;45.20;;;;;;5052942;28;20475;-82
2023/03/02 09:26:38;;;;;;;5.37;4.43;;;16.00;45.20;;;;;;5046180;28;20545;-82
2023/03/02 09:29:07;;;;;;;6.57;4.60;;;16.10;45.30;;;;;;5045082;28;20522;-82
2023/03/02 09:31:35;;;;;;;4.97;3.67;;;16.10;45.10;;;;;;5050055;28;20513;-84
2023/03/02 09:34:09;;;;;;;5.70;4.00;;;16.10;45.20;;;;;;5054502;28;20580;-81
2023/03/02 09:36:37;;;;;;;4.90;4.13;;;16.10;45.10;;;;;;5044379;28;20459;-82
2023/03/02 09:39:11;;;;;;;10.80;6.23;;;16.10;45.10;;;;;;5051672;28;20447;-82
2023/03/02 09:42:05;;;;;;;10.00;7.20;;;16.10;45.00;;;;;;5050780;28;20478;-83
2023/03/02 09:44:40;;;;;;;16.83;7.43;;;16.10;44.80;;;;;;5044035;28;20470;-82
2023/03/02 09:47:12;;;;;;;11.80;8.30;;;16.10;44.70;;;;;;5043527;28;20453;-81
2023/03/02 09:49:53;;;;;;;12.23;8.37;;;16.20;44.90;;;;;;5041362;28;20558;-82
2023/03/02 09:52:27;;;;;;;10.70;7.70;;;16.20;44.70;;;;;;5047591;28;20431;-82
2023/03/02 09:54:55;;;;;;;12.07;7.47;;;16.20;44.90;;;;;;5046948;28;20466;-83
2023/03/02 09:57:25;;;;;;;11.77;7.70;;;16.20;44.90;;;;;;5037810;28;20459;-84
2023/03/02 09:59:55;;;;;;;17.40;8.43;;;16.20;45.00;;;;;;5054254;28;20458;-83
2023/03/02 10:02:33;;;;;;;11.30;7.80;;;16.30;45.00;;;;;;5047462;28;20519;-83
2023/03/02 10:05:05;;;;;;;14.93;8.70;;;16.30;45.10;;;;;;5044434;28;20455;-83
2023/03/02 10:07:35;;;;;;;12.20;7.50;;;16.30;45.10;;;;;;5053214;28;20449;-83
2023/03/02 10:10:04;;;;;;;11.37;7.50;;;16.40;45.10;;;;;;5057612;28;20476;-83
2023/03/02 10:12:42;;;;;;;9.07;7.10;;;16.40;45.20;;;;;;5058481;28;20476;-83
2023/03/02 10:15:12;;;;;;;8.50;6.30;;;16.40;45.10;;;;;;5057371;28;20473;-82
2023/03/02 10:17:50;;;;;;;11.07;6.90;;;16.50;45.20;;;;;;5057696;28;20451;-83
2023/03/02 10:20:22;;;;;;;11.13;7.60;;;16.50;45.30;;;;;;5049412;28;20449;-82
2023/03/02 10:22:52;;;;;;;11.70;7.50;;;16.50;45.20;;;;;;5051684;28;20476;-83
2023/03/02 10:25:25;;;;;;;13.73;7.57;;;16.50;45.10;;;;;;5054532;28;20466;-82
2023/03/02 10:27:56;;;;;;;9.53;6.80;;;16.60;45.20;;;;;;5058789;28;20438;-83
2023/03/02 10:30:29;;;;;;;8.40;6.43;;;16.60;45.20;;;;;;5049825;28;20485;-83
2023/03/02 10:32:59;;;;;;;10.63;6.83;;;16.60;45.10;;;;;;5049441;28;20442;-83
2023/03/02 10:35:29;;;;;;;12.87;6.73;;;16.70;45.10;;;;;;5055897;28;20468;-82
2023/03/02 10:37:58;;;;;;;9.77;6.90;;;16.70;45.20;;;;;;5058115;28;20430;-83
2023/03/02 10:40:33;;;;;;;10.07;6.40;;;16.70;45.20;;;;;;5054020;28;20446;-79
2023/03/02 10:43:01;;;;;;;9.57;6.27;;;16.70;45.10;;;;;;5053298;28;20442;-82
2023/03/02 10:45:30;;;;;;;12.60;7.33;;;16.70;45.20;;;;;;5038926;28;20470;-81
2023/03/02 10:48:02;;;;;;;10.43;6.57;;;16.70;45.20;;;;;;5046232;28;20446;-79
2023/03/02 10:50:34;;;;;;;13.83;6.73;;;16.80;45.20;;;;;;5056148;28;20565;-80
2023/03/02 10:53:02;;;;;;;9.50;6.30;;;16.80;45.20;;;;;;5056442;28;20442;-79
2023/03/02 10:55:33;;;;;;;8.93;5.50;;;16.80;45.30;;;;;;5049876;28;20490;-80
2023/03/02 10:58:03;;;;;;;8.17;6.47;;;16.80;45.30;;;;;;5046333;28;20475;-80
2023/03/02 11:00:31;;;;;;;9.07;5.90;;;16.80;45.20;;;;;;5059274;28;20439;-78
2023/03/02 11:03:00;;;;;;;9.03;6.43;;;16.80;45.20;;;;;;5054709;28;20443;-80
2023/03/02 11:05:30;;;;;;;8.27;5.60;;;16.80;45.30;;;;;;5045795;28;20454;-80
2023/03/02 11:08:01;;;;;;;10.23;6.33;;;16.90;45.30;;;;;;5054964;28;20426;-79
2023/03/02 11:10:30;;;;;;;6.50;5.43;;;16.90;45.40;;;;;;5057510;28;20462;-80
2023/03/02 11:12:59;;;;;;;10.37;5.57;;;16.90;45.30;;;;;;5055119;28;20435;-80
2023/03/02 11:15:29;;;;;;;7.40;5.33;;;17.00;45.40;;;;;;5058227;28;20458;-79
2023/03/02 11:18:01;;;;;;;8.40;5.87;;;17.00;45.40;;;;;;5053592;28;20439;-80
2023/03/02 11:20:30;;;;;;;8.10;5.47;;;17.00;45.40;;;;;;5058980;28;20431;-81
2023/03/02 11:23:11;;;;;;;6.73;4.67;;;17.00;45.40;;;;;;5049052;28;20450;-80
2023/03/02 11:25:43;;;;;;;7.10;5.77;;;17.00;45.30;;;;;;5047416;28;20453;-80
2023/03/02 11:28:24;;;;;;;8.00;5.60;;;17.10;45.30;;;;;;5049761;28;20452;-80
2023/03/02 11:30:53;;;;;;;6.33;5.23;;;17.10;45.30;;;;;;5055038;28;20500;-79
2023/03/02 11:33:24;;;;;;;7.63;5.53;;;17.10;45.30;;;;;;5058850;28;20446;-80
2023/03/02 11:35:53;;;;;;;10.60;6.20;;;17.10;45.30;;;;;;5053757;28;20443;-79
2023/03/02 11:38:25;;;;;;;8.23;5.40;;;17.10;45.30;;;;;;5059576;28;20441;-77
2023/03/02 11:40:55;;;;;;;7.47;5.40;;;17.10;45.30;;;;;;5057158;28;20581;-80
2023/03/02 11:43:23;;;;;;;5.23;4.73;;;17.10;45.40;;;;;;5055028;28;20529;-78
2023/03/02 11:45:54;;;;;;;7.60;4.87;;;17.10;45.30;;;;;;5061976;28;20439;-82
2023/03/02 11:48:24;;;;;;;8.30;5.17;;;17.10;45.30;;;;;;5053061;28;20450;-83
2023/03/02 11:50:54;;;;;;;6.63;4.63;;;17.20;45.40;;;;;;5049732;28;20477;-79
2023/03/02 11:53:26;;;;;;;8.00;4.57;;;17.20;45.40;;;;;;5056834;28;20457;-81
2023/03/02 11:55:55;;;;;;;8.53;4.80;;;17.20;45.50;;;;;;5050729;28;20470;-81
2023/03/02 11:58:24;;;;;;;4.60;4.20;;;17.20;45.50;;;;;;5058160;28;20931;-81
2023/03/02 12:00:52;;;;;;;5.93;4.97;;;17.30;45.40;;;;;;5057480;28;20452;-81
2023/03/02 12:03:23;;;;;;;5.00;4.27;;;17.30;45.40;;;;;;5054695;28;20483;-81
2023/03/02 12:06:01;;;;;;;5.33;4.10;;;17.30;45.40;;;;;;5045654;28;20450;-81
2023/03/02 12:08:37;;;;;;;6.20;4.50;;;17.20;45.30;;;;;;5050637;28;20523;-80
2023/03/02 12:11:06;;;;;;;4.87;4.30;;;17.30;45.30;;;;;;5050025;28;20478;-80
2023/03/02 12:13:35;;;;;;;5.23;4.73;;;17.30;45.30;;;;;;5058041;28;20530;-80
2023/03/02 12:16:03;;;;;;;4.40;3.90;;;17.30;45.20;;;;;;5059142;28;20449;-81
2023/03/02 12:18:46;;;;;;;4.57;4.17;;;17.40;45.30;;;;;;5055174;28;20447;-79
2023/03/02 12:21:16;;;;;;;5.50;3.90;;;17.40;45.30;;;;;;5058965;28;20525;-82
2023/03/02 12:24:02;;;;;;;9.30;4.30;;;17.40;45.40;;;;;;5058247;28;20470;-79
2023/03/02 12:26:35;;;;;;;6.30;4.43;;;17.40;45.20;;;;;;5056696;28;20463;-80
2023/03/02 12:29:06;;;;;;;7.00;4.10;;;17.40;45.30;;;;;;5056053;28;20434;-80
2023/03/02 12:31:42;;;;;;;4.17;3.83;;;17.40;45.20;;;;;;5055244;28;20486;-78
2023/03/02 12:34:30;;;;;;;4.60;3.77;;;17.40;45.20;;;;;;5049406;28;20452;-81
2023/03/02 12:37:00;;;;;;;4.47;3.87;;;17.40;45.30;;;;;;5054466;28;20461;-79
2023/03/02 12:39:37;;;;;;;6.40;4.03;;;17.40;45.40;;;;;;5050616;28;20969;-81
2023/03/02 12:42:34;;;;;;;4.37;3.97;;;17.40;45.40;;;;;;5056798;28;20473;-80
2023/03/02 12:45:04;;;;;;;6.13;4.50;;;17.40;45.30;;;;;;5037117;28;20822;-80
2023/03/02 12:47:32;;;;;;;4.03;3.60;;;17.40;45.30;;;;;;5049824;28;20481;-79
2023/03/02 12:50:01;;;;;;;5.20;3.83;;;17.40;45.40;;;;;;5041694;28;20475;-80
2023/03/02 12:52:30;;;;;;;4.53;3.30;;;17.50;45.50;;;;;;5042533;28;20455;-80
2023/03/02 12:55:01;;;;;;;4.90;3.73;;;17.50;45.40;;;;;;5049208;28;20455;-81
2023/03/02 12:57:29;;;;;;;4.80;3.70;;;17.60;45.30;;;;;;5057650;28;20466;-81